createdAt,value
2022-11-02T00:01:14.020Z,12.00
2022-11-02T00:03:42.070Z,12.00
2022-11-02T00:06:11.423Z,11.90
2022-11-02T00:08:39.442Z,12.00
2022-11-02T00:11:07.538Z,12.10
2022-11-02T00:13:35.581Z,12.20
2022-11-02T00:16:05.146Z,12.20
2022-11-02T00:18:35.103Z,12.20
2022-11-02T00:21:03.403Z,12.20
2022-11-02T00:23:33.353Z,12.20
2022-11-02T00:26:04.369Z,12.30
2022-11-02T00:28:32.438Z,12.20
2022-11-02T00:31:00.446Z,12.30
2022-11-02T00:33:28.458Z,12.40
2022-11-02T00:35:56.845Z,12.40
2022-11-02T00:38:24.765Z,12.30
2022-11-02T00:40:54.118Z,12.40
2022-11-02T00:43:22.055Z,12.40
2022-11-02T00:45:50.053Z,12.40
2022-11-02T00:48:18.061Z,12.30
2022-11-02T00:50:46.007Z,12.20
2022-11-02T00:53:14.017Z,12.20
2022-11-02T00:55:42.005Z,12.10
2022-11-02T00:58:11.402Z,12.10
2022-11-02T01:00:39.466Z,12.10
2022-11-02T01:03:07.524Z,12.00
2022-11-02T01:05:35.486Z,12.00
2022-11-02T01:08:03.697Z,12.00
2022-11-02T01:10:31.923Z,12.00
2022-11-02T01:12:59.923Z,12.00
2022-11-02T01:15:29.520Z,12.00
2022-11-02T01:17:57.524Z,11.90
2022-11-02T01:20:25.671Z,11.90
2022-11-02T01:22:53.667Z,11.90
2022-11-02T01:25:21.636Z,12.10
2022-11-02T01:27:49.571Z,11.90
2022-11-02T01:30:17.776Z,11.90
2022-11-02T01:32:47.177Z,11.90
2022-11-02T01:35:16.744Z,11.90
2022-11-02T01:37:44.807Z,11.80
2022-11-02T01:40:13.465Z,11.80
2022-11-02T01:42:41.433Z,11.80
2022-11-02T01:45:11.682Z,11.90
2022-11-02T01:47:43.889Z,11.80
2022-11-02T01:50:18.308Z,11.80
2022-11-02T01:52:46.322Z,11.70
2022-11-02T01:55:19.425Z,11.70
2022-11-02T01:57:50.376Z,11.70
2022-11-02T02:00:20.005Z,11.70
2022-11-02T02:02:53.552Z,11.70
2022-11-02T02:05:25.370Z,11.60
2022-11-02T02:07:54.778Z,11.60
2022-11-02T02:10:22.879Z,11.60
2022-11-02T02:12:51.524Z,11.60
2022-11-02T02:15:21.346Z,11.60
2022-11-02T02:17:57.071Z,11.60
2022-11-02T02:20:43.542Z,11.60
2022-11-02T02:23:40.550Z,11.60
2022-11-02T02:26:34.321Z,11.60
2022-11-02T02:29:06.396Z,11.70
2022-11-02T02:31:38.073Z,11.70
2022-11-02T02:34:12.631Z,11.70
2022-11-02T02:39:21.701Z,11.60
2022-11-02T02:41:59.400Z,11.60
2022-11-02T02:44:34.350Z,11.60
2022-11-02T02:47:06.042Z,11.60
2022-11-02T02:49:39.131Z,11.50
2022-11-02T02:52:09.015Z,11.40
2022-11-02T02:54:43.289Z,11.30
2022-11-02T02:57:14.153Z,11.20
2022-11-02T02:59:45.023Z,11.00
2022-11-02T03:02:18.078Z,10.90
2022-11-02T03:04:46.392Z,10.80
2022-11-02T03:07:18.016Z,10.80
2022-11-02T03:09:51.145Z,10.70
2022-11-02T03:12:26.900Z,10.60
2022-11-02T03:15:10.801Z,10.50
2022-11-02T03:17:48.472Z,10.50
2022-11-02T03:20:24.813Z,10.40
2022-11-02T03:23:06.034Z,10.40
2022-11-02T03:25:45.217Z,10.30
2022-11-02T03:28:19.335Z,10.30
2022-11-02T03:30:53.610Z,10.30
2022-11-02T03:33:27.248Z,10.30
2022-11-02T03:35:58.877Z,10.30
2022-11-02T03:38:35.225Z,10.30
2022-11-02T03:41:06.001Z,10.20
2022-11-02T03:43:35.816Z,10.10
2022-11-02T03:46:08.705Z,10.00
2022-11-02T03:48:41.750Z,9.90
2022-11-02T03:51:14.704Z,9.90
2022-11-02T03:53:48.616Z,9.80
2022-11-02T03:56:22.524Z,9.80
2022-11-02T03:58:50.923Z,9.80
2022-11-02T04:01:21.909Z,9.80
2022-11-02T04:03:50.352Z,9.70
2022-11-02T04:06:18.435Z,9.70
2022-11-02T04:08:49.953Z,9.70
2022-11-02T04:11:35.601Z,9.60
2022-11-02T04:14:21.107Z,9.60
2022-11-02T04:16:50.558Z,9.50
2022-11-02T04:19:29.908Z,9.50
2022-11-02T04:22:15.802Z,9.50
2022-11-02T04:25:01.688Z,9.50
2022-11-02T04:27:30.083Z,9.50
2022-11-02T04:29:58.126Z,9.40
2022-11-02T04:32:45.104Z,9.40
2022-11-02T04:35:13.401Z,9.40
2022-11-02T04:37:59.505Z,9.40
2022-11-02T04:40:27.832Z,9.30
2022-11-02T04:42:54.865Z,9.30
2022-11-02T04:45:22.977Z,9.30
2022-11-02T04:47:52.451Z,9.30
2022-11-02T04:50:20.641Z,9.20
2022-11-02T04:52:48.683Z,9.20
2022-11-02T04:55:16.960Z,9.20
2022-11-02T04:57:46.600Z,9.30
2022-11-02T05:00:16.509Z,9.20
2022-11-02T05:02:44.661Z,9.20
2022-11-02T05:05:14.536Z,9.20
2022-11-02T05:07:43.670Z,9.30
2022-11-02T05:10:12.461Z,9.30
2022-11-02T05:12:41.383Z,9.30
2022-11-02T05:15:10.266Z,9.40
2022-11-02T05:17:38.315Z,9.40
2022-11-02T05:20:08.748Z,9.40
2022-11-02T05:22:38.214Z,9.40
2022-11-02T05:25:07.092Z,9.40
2022-11-02T05:27:35.418Z,9.40
2022-11-02T05:30:04.153Z,9.40
2022-11-02T05:32:32.484Z,9.40
2022-11-02T05:35:00.573Z,9.40
2022-11-02T05:37:28.842Z,9.40
2022-11-02T05:39:58.808Z,9.40
2022-11-02T05:42:27.043Z,9.40
2022-11-02T05:44:55.372Z,9.40
2022-11-02T05:47:23.460Z,9.40
2022-11-02T05:49:51.496Z,9.40
2022-11-02T05:52:19.747Z,9.40
2022-11-02T05:54:48.237Z,9.40
2022-11-02T05:57:19.252Z,9.30
2022-11-02T05:59:49.530Z,9.30
2022-11-02T06:02:19.846Z,9.30
2022-11-02T06:04:50.034Z,9.30
2022-11-02T06:07:18.259Z,9.30
2022-11-02T06:09:46.572Z,9.30
2022-11-02T06:12:17.658Z,9.30
2022-11-02T06:14:47.248Z,9.30
2022-11-02T06:17:15.371Z,9.40
2022-11-02T06:19:43.831Z,9.50
2022-11-02T06:22:12.104Z,9.60
2022-11-02T06:24:40.423Z,9.60
2022-11-02T06:27:08.481Z,9.60
2022-11-02T06:29:36.538Z,9.70
2022-11-02T06:32:06.690Z,9.90
2022-11-02T06:34:34.656Z,10.10
2022-11-02T06:37:02.794Z,10.50
2022-11-02T06:39:30.865Z,10.90
2022-11-02T06:41:59.318Z,11.10
2022-11-02T06:44:27.417Z,11.30
2022-11-02T06:46:55.653Z,11.30
2022-11-02T06:49:25.651Z,11.80
2022-11-02T06:51:54.336Z,12.10
2022-11-02T06:54:22.483Z,12.50
2022-11-02T06:56:50.692Z,13.00
2022-11-02T06:59:18.764Z,13.50
2022-11-02T07:01:54.378Z,14.30
2022-11-02T07:04:24.135Z,14.90
2022-11-02T07:06:52.370Z,15.20
2022-11-02T07:09:20.577Z,15.30
2022-11-02T07:11:48.680Z,15.50
2022-11-02T07:14:16.691Z,15.90
2022-11-02T07:16:45.028Z,16.20
2022-11-02T07:19:13.040Z,16.70
2022-11-02T07:21:45.046Z,16.90
2022-11-02T07:24:15.635Z,17.00
2022-11-02T07:26:43.743Z,17.20
2022-11-02T07:29:11.763Z,17.50
2022-11-02T07:31:39.938Z,17.60
2022-11-02T07:34:10.636Z,17.20
2022-11-02T07:36:42.345Z,16.30
2022-11-02T07:39:10.505Z,15.40
2022-11-02T07:41:38.672Z,14.80
2022-11-02T07:44:06.774Z,14.30
2022-11-02T07:46:35.057Z,14.10
2022-11-02T07:49:03.048Z,13.80
2022-11-02T07:51:31.073Z,13.40
2022-11-02T07:54:01.508Z,13.00
2022-11-02T07:56:29.726Z,12.70
2022-11-02T07:58:57.734Z,12.50
2022-11-02T08:01:25.801Z,13.00
2022-11-02T08:03:54.737Z,13.90
2022-11-02T08:06:22.842Z,14.60
2022-11-02T08:08:50.874Z,14.80
2022-11-02T08:11:20.317Z,14.60
2022-11-02T08:16:16.732Z,14.70
2022-11-02T08:18:45.459Z,14.70
2022-11-02T08:21:13.836Z,14.60
2022-11-02T08:23:42.002Z,14.40
2022-11-02T08:26:10.218Z,14.20
2022-11-02T08:28:41.258Z,14.30
2022-11-02T08:31:15.932Z,15.30
2022-11-02T08:33:44.342Z,16.80
2022-11-02T08:36:12.658Z,18.40
2022-11-02T08:38:41.638Z,19.40
2022-11-02T08:41:09.862Z,20.20
2022-11-02T08:43:39.324Z,20.80
2022-11-02T08:46:16.632Z,20.60
2022-11-02T08:48:46.010Z,20.10
2022-11-02T08:51:14.307Z,19.30
2022-11-02T08:53:44.653Z,18.50
2022-11-02T08:56:15.323Z,17.90
2022-11-02T08:58:44.735Z,17.30
2022-11-02T09:01:12.741Z,16.80
2022-11-02T09:03:42.269Z,16.40
2022-11-02T09:06:16.063Z,16.10
2022-11-02T09:08:44.163Z,16.00
2022-11-02T09:11:12.607Z,16.00
2022-11-02T09:13:40.674Z,15.80
2022-11-02T09:16:10.422Z,15.60
2022-11-02T09:18:39.001Z,15.40
2022-11-02T09:21:07.390Z,15.10
2022-11-02T09:23:35.383Z,14.90
2022-11-02T09:26:03.597Z,14.90
2022-11-02T09:28:31.665Z,15.20
2022-11-02T09:30:59.857Z,15.90
2022-11-02T09:33:29.902Z,16.50
2022-11-02T09:36:02.640Z,17.00
2022-11-02T09:38:30.981Z,17.50
2022-11-02T09:41:07.167Z,18.10
2022-11-02T09:43:46.387Z,18.60
2022-11-02T09:46:20.295Z,18.90
2022-11-02T09:48:53.234Z,19.00
2022-11-02T09:51:23.575Z,19.20
2022-11-02T09:54:03.584Z,19.40
2022-11-02T09:56:32.251Z,19.40
2022-11-02T09:59:03.848Z,19.10
2022-11-02T10:01:55.772Z,18.90
2022-11-02T10:04:49.553Z,18.60
2022-11-02T10:07:30.893Z,18.30
2022-11-02T10:10:01.922Z,18.00
2022-11-02T10:12:38.537Z,17.80
2022-11-02T10:15:13.660Z,17.80
2022-11-02T10:17:43.365Z,17.70
2022-11-02T10:20:22.759Z,17.70
2022-11-02T10:22:50.847Z,17.80
2022-11-02T10:25:19.112Z,17.90
2022-11-02T10:27:51.325Z,18.00
2022-11-02T10:30:22.047Z,18.10
2022-11-02T10:32:53.928Z,18.00
2022-11-02T10:35:41.061Z,17.80
2022-11-02T10:38:29.931Z,17.60
2022-11-02T10:41:14.723Z,17.50
2022-11-02T10:44:00.395Z,17.50
2022-11-02T10:46:42.039Z,17.60
2022-11-02T10:49:15.912Z,17.50
2022-11-02T10:51:45.397Z,17.30
2022-11-02T10:54:18.641Z,17.30
2022-11-02T10:56:50.875Z,17.40
2022-11-02T10:59:20.223Z,17.50
2022-11-02T11:02:05.222Z,17.60
2022-11-02T11:04:34.454Z,17.50
2022-11-02T11:07:14.468Z,17.70
2022-11-02T11:09:49.791Z,17.90
2022-11-02T11:12:22.432Z,17.90
2022-11-02T11:20:37.469Z,17.70
2022-11-02T11:23:19.768Z,17.80
2022-11-02T11:26:03.151Z,17.70
2022-11-02T11:28:33.763Z,17.60
2022-11-02T11:31:14.333Z,17.40
2022-11-02T11:33:44.587Z,17.20
2022-11-02T11:36:21.633Z,17.00
2022-11-02T11:38:52.263Z,16.90
2022-11-02T11:41:21.045Z,16.90
2022-11-02T11:43:50.855Z,16.90
2022-11-02T11:46:19.139Z,17.10
2022-11-02T11:48:50.832Z,17.30
2022-11-02T11:51:31.800Z,17.50
2022-11-02T11:54:20.991Z,17.70
2022-11-02T11:56:50.028Z,18.00
2022-11-02T11:59:26.499Z,18.10
2022-11-02T12:02:00.240Z,18.20
2022-11-02T12:04:31.123Z,18.10
2022-11-02T12:07:13.958Z,17.90
2022-11-02T12:09:50.882Z,18.00
2022-11-02T12:12:28.585Z,18.20
2022-11-02T12:15:10.231Z,18.40
2022-11-02T12:17:52.983Z,18.50
2022-11-02T12:20:54.569Z,18.60
2022-11-02T12:23:36.104Z,18.60
2022-11-02T12:26:18.852Z,18.50
2022-11-02T12:29:03.863Z,18.20
2022-11-02T12:31:37.833Z,18.00
2022-11-02T12:34:27.167Z,17.80
2022-11-02T12:40:09.048Z,17.50
2022-11-02T12:42:45.956Z,17.40
2022-11-02T12:45:27.564Z,17.20
2022-11-02T12:47:59.001Z,17.10
2022-11-02T12:50:45.302Z,16.90
2022-11-02T12:53:41.666Z,16.80
2022-11-02T12:56:15.016Z,16.90
2022-11-02T12:58:45.291Z,17.00
2022-11-02T13:01:27.578Z,16.90
2022-11-02T13:04:01.080Z,16.70
2022-11-02T13:06:35.223Z,16.50
2022-11-02T13:09:09.212Z,16.40
2022-11-02T13:11:41.577Z,16.40
2022-11-02T13:14:15.865Z,16.30
2022-11-02T13:16:50.160Z,16.30
2022-11-02T13:19:21.796Z,16.20
2022-11-02T13:21:55.224Z,16.10
2022-11-02T13:24:31.724Z,16.10
2022-11-02T13:27:14.441Z,16.00
2022-11-02T13:29:52.948Z,16.20
2022-11-02T13:32:33.598Z,16.30
2022-11-02T13:35:07.386Z,16.40
2022-11-02T13:37:40.081Z,16.40
2022-11-02T13:40:16.679Z,16.30
2022-11-02T13:43:07.372Z,16.20
2022-11-02T13:46:04.604Z,16.20
2022-11-02T13:48:53.620Z,16.10
2022-11-02T13:51:30.181Z,16.00
2022-11-02T13:54:03.927Z,15.80
2022-11-02T13:56:36.953Z,15.80
2022-11-02T13:59:07.414Z,15.80
2022-11-02T14:01:41.524Z,15.80
2022-11-02T14:04:12.086Z,15.80
2022-11-02T14:06:51.936Z,15.70
2022-11-02T14:09:27.878Z,15.70
2022-11-02T14:12:27.754Z,15.70
2022-11-02T14:15:35.310Z,15.80
2022-11-02T14:18:16.221Z,15.70
2022-11-02T14:20:48.956Z,15.60
2022-11-02T14:23:40.772Z,15.50
2022-11-02T14:26:53.796Z,15.40
2022-11-02T14:29:52.024Z,15.30
2022-11-02T14:32:27.098Z,15.20
2022-11-02T14:35:15.317Z,15.20
2022-11-02T14:38:00.817Z,15.20
2022-11-02T14:40:34.817Z,15.20
2022-11-02T14:43:47.554Z,15.20
2022-11-02T14:46:27.598Z,15.10
2022-11-02T14:48:58.090Z,15.00
2022-11-02T14:51:29.863Z,14.90
2022-11-02T14:54:00.368Z,14.80
2022-11-02T14:56:50.552Z,14.80
2022-11-02T14:59:21.418Z,14.70
2022-11-02T15:01:57.610Z,14.70
2022-11-02T15:04:27.762Z,14.60
2022-11-02T15:07:00.627Z,14.60
2022-11-02T15:09:55.060Z,14.50
2022-11-02T15:12:31.016Z,14.50
2022-11-02T15:15:27.608Z,14.40
2022-11-02T15:18:21.748Z,14.30
2022-11-02T15:21:23.220Z,14.30
2022-11-02T15:24:04.001Z,14.10
2022-11-02T15:26:41.746Z,14.10
2022-11-02T15:29:21.071Z,14.10
2022-11-02T15:31:55.997Z,14.00
2022-11-02T15:34:31.627Z,14.00
2022-11-02T15:37:01.290Z,14.00
2022-11-02T15:39:31.780Z,13.80
2022-11-02T15:42:05.310Z,13.80
2022-11-02T15:44:55.513Z,13.80
2022-11-02T15:47:34.240Z,13.70
2022-11-02T15:50:21.214Z,13.60
2022-11-02T15:53:23.372Z,13.50
2022-11-02T15:56:09.059Z,13.40
2022-11-02T15:59:06.118Z,13.20
2022-11-02T16:01:34.311Z,13.10
2022-11-02T16:04:05.938Z,13.00
2022-11-02T16:06:38.003Z,12.90
2022-11-02T16:09:30.936Z,12.90
2022-11-02T16:12:11.068Z,12.80
2022-11-02T16:14:39.537Z,12.80
2022-11-02T16:17:19.345Z,12.70
2022-11-02T16:19:49.235Z,12.70
2022-11-02T16:22:27.773Z,12.60
2022-11-02T16:24:57.115Z,12.50
2022-11-02T16:27:26.571Z,12.50
2022-11-02T16:29:54.745Z,12.40
2022-11-02T16:32:25.307Z,12.40
2022-11-02T16:34:53.979Z,12.30
2022-11-02T16:37:23.663Z,12.40
2022-11-02T16:39:54.858Z,12.40
2022-11-02T16:42:34.570Z,12.30
2022-11-02T16:45:05.130Z,12.20
2022-11-02T16:47:38.783Z,12.20
2022-11-02T16:50:20.608Z,12.20
2022-11-02T16:52:56.427Z,12.10
2022-11-02T16:55:39.147Z,12.20
2022-11-02T16:58:10.538Z,12.10
2022-11-02T17:00:40.193Z,12.10
2022-11-02T17:03:10.776Z,12.00
2022-11-02T17:05:41.803Z,12.00
2022-11-02T17:08:28.292Z,12.00
2022-11-02T17:10:58.286Z,11.90
2022-11-02T17:13:27.797Z,11.80
2022-11-02T17:16:02.894Z,11.80
2022-11-02T17:18:31.175Z,11.80
2022-11-02T17:21:32.498Z,11.70
2022-11-02T17:24:34.540Z,11.80
2022-11-02T17:27:18.280Z,11.80
2022-11-02T17:29:46.413Z,11.70
2022-11-02T17:32:17.913Z,11.70
2022-11-02T17:34:57.564Z,11.70
2022-11-02T17:37:27.776Z,11.60
2022-11-02T17:40:00.964Z,11.60
2022-11-02T17:42:46.944Z,11.60
2022-11-02T17:45:24.936Z,11.60
2022-11-02T17:47:53.715Z,11.60
2022-11-02T17:50:21.907Z,11.50
2022-11-02T17:52:50.799Z,11.50
2022-11-02T17:55:22.256Z,11.50
2022-11-02T17:57:50.629Z,11.40
2022-11-02T18:00:19.532Z,11.30
2022-11-02T18:02:50.830Z,11.20
2022-11-02T18:05:24.587Z,11.10
2022-11-02T18:07:53.157Z,11.10
2022-11-02T18:10:24.716Z,11.00
2022-11-02T18:12:53.400Z,10.90
2022-11-02T18:15:23.516Z,10.90
2022-11-02T18:17:52.202Z,10.80
2022-11-02T18:20:21.337Z,10.80
2022-11-02T18:22:49.385Z,10.70
2022-11-02T18:27:53.708Z,10.60
2022-11-02T18:30:21.992Z,10.50
2022-11-02T18:32:50.562Z,10.40
2022-11-02T18:35:21.401Z,10.50
2022-11-02T18:37:49.909Z,10.50
2022-11-02T18:40:19.896Z,10.40
2022-11-02T18:42:54.273Z,10.40
2022-11-02T18:45:23.907Z,10.30
2022-11-02T18:47:51.924Z,10.20
2022-11-02T18:50:20.173Z,10.20
2022-11-02T18:52:49.896Z,10.20
2022-11-02T18:55:18.206Z,10.20
2022-11-02T18:57:46.564Z,10.10
2022-11-02T19:00:15.950Z,10.10
2022-11-02T19:02:45.438Z,10.10
2022-11-02T19:05:27.370Z,10.10
2022-11-02T19:08:12.803Z,10.10
2022-11-02T19:10:41.842Z,10.10
2022-11-02T19:13:09.914Z,10.10
2022-11-02T19:15:42.406Z,10.00
2022-11-02T19:18:12.236Z,10.00
2022-11-02T19:20:42.324Z,10.00
2022-11-02T19:23:10.893Z,9.90
2022-11-02T19:25:39.315Z,9.90
2022-11-02T19:28:07.562Z,9.80
2022-11-02T19:30:38.857Z,9.70
2022-11-02T19:33:07.473Z,9.60
2022-11-02T19:35:37.098Z,9.50
2022-11-02T19:38:05.244Z,9.50
2022-11-02T19:40:33.860Z,9.50
2022-11-02T19:43:02.076Z,9.50
2022-11-02T19:45:30.236Z,9.50
2022-11-02T19:47:58.898Z,9.50
2022-11-02T19:50:27.114Z,9.50
2022-11-02T19:52:56.953Z,9.40
2022-11-02T19:55:29.373Z,9.40
2022-11-02T19:57:57.839Z,9.30
2022-11-02T20:00:26.007Z,9.20
2022-11-02T20:02:54.046Z,9.10
2022-11-02T20:05:22.331Z,9.10
2022-11-02T20:07:51.983Z,9.00
2022-11-02T20:10:23.933Z,9.00
2022-11-02T20:12:52.116Z,9.00
2022-11-02T20:15:35.286Z,9.00
2022-11-02T20:18:18.955Z,8.90
2022-11-02T20:20:50.453Z,8.90
2022-11-02T20:23:21.224Z,8.90
2022-11-02T20:25:50.821Z,9.00
2022-11-02T20:28:29.545Z,8.90
2022-11-02T20:31:12.362Z,8.80
2022-11-02T20:33:49.052Z,8.80
2022-11-02T20:36:24.063Z,8.80
2022-11-02T20:39:09.891Z,8.70
2022-11-02T20:41:42.116Z,8.80
2022-11-02T20:44:21.974Z,8.80
2022-11-02T20:47:04.572Z,8.80
2022-11-02T20:49:50.047Z,8.80
2022-11-02T20:52:34.208Z,8.80
2022-11-02T20:55:11.694Z,8.70
2022-11-02T20:57:42.355Z,8.70
2022-11-02T21:00:20.347Z,8.70
2022-11-02T21:02:52.969Z,8.70
2022-11-02T21:05:24.273Z,8.60
2022-11-02T21:08:06.073Z,8.50
2022-11-02T21:10:43.252Z,8.50
2022-11-02T21:13:33.751Z,8.30
2022-11-02T21:16:08.539Z,8.30
2022-11-02T21:18:36.703Z,8.20
2022-11-02T21:21:06.256Z,8.20
2022-11-02T21:23:34.877Z,8.10
2022-11-02T21:26:05.591Z,8.10
2022-11-02T21:31:07.483Z,8.20
2022-11-02T21:33:36.407Z,8.20
2022-11-02T21:36:05.664Z,8.10
2022-11-02T21:38:34.088Z,8.20
2022-11-02T21:41:04.380Z,8.10
2022-11-02T21:43:36.024Z,8.10
2022-11-02T21:46:05.931Z,8.10
2022-11-02T21:48:36.925Z,8.10
2022-11-02T21:51:08.359Z,8.00
2022-11-02T21:53:38.548Z,8.00
2022-11-02T21:56:08.958Z,7.90
2022-11-02T21:58:44.617Z,7.90
2022-11-02T22:01:33.636Z,7.80
2022-11-02T22:04:02.388Z,7.80
2022-11-02T22:06:31.707Z,7.90
2022-11-02T22:09:01.309Z,7.90
2022-11-02T22:11:30.189Z,7.90
2022-11-02T22:14:01.060Z,7.90
2022-11-02T22:16:31.946Z,7.90
2022-11-02T22:19:01.563Z,7.90
2022-11-02T22:21:31.761Z,7.90
2022-11-02T22:24:00.715Z,7.90
2022-11-02T22:26:30.516Z,7.90
2022-11-02T22:29:01.256Z,7.90
2022-11-02T22:31:31.047Z,7.90
2022-11-02T22:34:01.032Z,7.90
2022-11-02T22:36:31.356Z,7.90
2022-11-02T22:39:00.828Z,7.90
2022-11-02T22:41:30.276Z,7.80
2022-11-02T22:44:02.912Z,7.70
2022-11-02T22:46:32.332Z,7.70
2022-11-02T22:49:02.654Z,7.70
2022-11-02T22:51:33.668Z,7.70
2022-11-02T22:54:02.590Z,7.60
2022-11-02T22:56:31.367Z,7.60
2022-11-02T22:59:01.171Z,7.70
2022-11-02T23:01:31.184Z,7.50
2022-11-02T23:04:01.230Z,7.50
2022-11-02T23:06:29.874Z,7.50
2022-11-02T23:08:59.671Z,7.40
2022-11-02T23:11:30.232Z,7.50
2022-11-02T23:14:01.627Z,7.50
2022-11-02T23:16:31.274Z,7.50
2022-11-02T23:19:25.357Z,7.60
2022-11-02T23:22:10.605Z,7.50
2022-11-02T23:24:58.179Z,7.50
2022-11-02T23:27:26.973Z,7.50
2022-11-02T23:30:14.689Z,7.60
2022-11-02T23:32:43.282Z,7.50
2022-11-02T23:35:29.515Z,7.50
2022-11-02T23:38:05.217Z,7.50
2022-11-02T23:40:33.811Z,7.50
2022-11-02T23:43:03.384Z,7.50
2022-11-02T23:45:32.953Z,7.50
2022-11-02T23:48:06.000Z,7.50
2022-11-02T23:50:51.584Z,7.50
2022-11-02T23:53:39.007Z,7.50
2022-11-02T23:56:31.006Z,7.50
2022-11-02T23:59:07.321Z,7.50
